Monday, December 18, 2017, 5:10 PM EST
Back to Local

KFKL, Franklin, Venango Regional Airport

Location: Franklin, PA, United States Lat: 41.383
Local Time: 5:10 PM EST (22:10 GMT) Lon: -79.867
Time Zone: US/Eastern Elev: 1538 ft

Show me the last for .
Show Decoded

2017-12-18 15:56 METAR KFKL 182056Z AUTO 23009KT 1 1/2SM -RA BR OVC003 03/02 A2992 RMK AO2
                 UPE26RAB00 SLP147 P0000 60000 T00280022 55005 =
2017-12-18 15:48 METAR KFKL 182048Z AUTO 23009KT 1 1/4SM -RA BR OVC003 02/02 A2992 RMK AO2
                 UPE26RAB00 P0000 FZRANO =
2017-12-18 15:19 METAR KFKL 182019Z AUTO 23007KT 3/4SM UP BR OVC003 02/02 A2992 RMK AO2 RAB00E11
                 P0000 FZRANO =
2017-12-18 14:56 METAR KFKL 181956Z AUTO 23010KT 1SM UP BR OVC003 02/02 A2991 RMK AO2 UPB37
                 SLP145 P0000 T00220017 FZRANO =
2017-12-18 14:48 METAR KFKL 181948Z AUTO 22009KT 1SM UP BR OVC003 02/02 A2992 RMK AO2 UPB37 P0000
                 FZRANO =
2017-12-18 14:14 METAR KFKL 181914Z AUTO 21010KT 1 3/4SM BR OVC003 02/02 A2992 RMK AO2 FZRANO =
2017-12-18 14:06 METAR KFKL 181906Z AUTO 21011KT 2SM BR OVC005 02/02 A2992 RMK AO2 FZRANO =
2017-12-18 13:56 METAR KFKL 181856Z AUTO 23009KT 3SM BR OVC005 02/01 A2992 RMK AO2 SLP148
                 T00220011 FZRANO =
2017-12-18 12:56 METAR KFKL 181756Z AUTO 21008KT 10SM OVC005 02/01 A2994 RMK AO2
                 UPE1659B22E27RAB1659E22 SLP153 P0000 6//// T00220011 10022 20011 58026 FZRANO =
2017-12-18 12:20 METAR KFKL 181720Z AUTO 22007KT 10SM -RA OVC005 02/01 A2996 RMK AO2
                 UPE1659RAB1659 P0000 FZRANO =
2017-12-18 11:56 METAR KFKL 181656Z AUTO 22010KT 8SM UP OVC007 02/01 A2997 RMK AO2 UPB56 SLP163
                 P0000 T00220006 FZRANO =
2017-12-18 10:56 METAR KFKL 181556Z AUTO 22009KT 10SM OVC007 02/01 A3001 RMK AO2 SLP178 T00220006
                 FZRANO =
2017-12-18 09:56 METAR KFKL 181456Z AUTO 21008KT 10SM OVC009 02/00 A3002 RMK AO2 SLP180 6////
                 T00170000 51002 FZRANO =
2017-12-18 09:54 METAR KFKL 181454Z AUTO 22008KT 10SM OVC009 02/00 A3002 RMK AO2 FZRANO =
2017-12-18 09:08 METAR KFKL 181408Z AUTO 22009KT 10SM BKN011 OVC045 02/M01 A3002 RMK AO2 FZRANO =
2017-12-18 08:56 METAR KFKL 181356Z AUTO 22006KT 10SM SCT011 OVC045 02/M01 A3002 RMK AO2 SLP181
                 T00171006 FZRANO =
2017-12-18 07:56 METAR KFKL 181256Z AUTO 22006KT 10SM BKN041 OVC048 01/M01 A3001 RMK AO2 SLP178
                 T00111011 FZRANO =
2017-12-18 06:56 METAR KFKL 181156Z AUTO 22007KT 10SM FEW041 OVC050 01/M01 A3002 RMK AO2 RAB06E41
                 SLP181 P0000 6//// 7//// T00111011 10017 20011 56004 FZRANO =
2017-12-18 05:56 METAR KFKL 181056Z AUTO 22007KT 10SM OVC036 02/M01 A3003 RMK AO2 SLP183
                 T00171011 FZRANO =
2017-12-18 05:41 METAR KFKL 181041Z AUTO 21006KT 10SM SCT023 OVC032 02/M01 A3003 RMK AO2 FZRANO =
2017-12-18 04:56 METAR KFKL 180956Z AUTO 21008KT 10SM OVC021 02/M01 A3002 RMK AO2 SLP180
                 T00171011 FZRANO =
2017-12-18 03:56 METAR KFKL 180856Z AUTO 22006KT 10SM OVC019 01/M01 A3003 RMK AO2 SLP186
                 T00111006 55009 FZRANO =
2017-12-18 02:56 METAR KFKL 180756Z AUTO 20007KT 10SM OVC021 01/M01 A3003 RMK AO2 SLP186
                 T00111006 FZRANO =
2017-12-18 01:56 METAR KFKL 180656Z AUTO 21005KT 9SM OVC023 01/00 A3004 RMK AO2 SLP187 T00110000
                 FZRANO =
2017-12-18 00:56 METAR KFKL 180556Z AUTO 22008KT 8SM FEW008 BKN015 OVC025 01/00 A3006 RMK AO2
                 SLP196 60001 T00110000 10011 20006 58006 FZRANO =
2017-12-18 00:47 METAR KFKL 180547Z AUTO 22004KT 8SM FEW008 BKN015 OVC025 01/00 A3006 RMK AO2
                 FZRANO =
2017-12-18 00:17 METAR KFKL 180517Z AUTO 21004KT 8SM BKN029 OVC035 01/00 A3007 RMK AO2 FZRANO =
2017-12-17 23:56 METAR KFKL 180456Z AUTO 23005KT 8SM FEW022 BKN037 OVC045 01/00 A3007 RMK AO2
                 SLP201 T00110000 400111072 FZRANO =
2017-12-17 22:56 METAR KFKL 180356Z AUTO 21005KT 6SM BR OVC037 01/M01 A3008 RMK AO2 RAE0259
                 SLP205 P0000 T00061006 FZRANO =
2017-12-17 21:56 METAR KFKL 180256Z AUTO 19004KT 9SM -RA SCT030 BKN043 OVC050 01/M01 A3008 RMK
                 AO2 UPE0157B34E38RAB0157SNB24E34 SLP205 P0001 60001 T00061006 50001 FZRANO =
2017-12-17 21:41 METAR KFKL 180241Z AUTO 19005KT 6SM -RA BR SCT025 OVC030 01/M01 A3008 RMK AO2
                 UPE0157B34E38RAB0157SNB24E34 P0000 FZRANO =
2017-12-17 20:56 METAR KFKL 180156Z AUTO 21007KT 10SM UP BKN026 OVC060 01/M02 A3008 RMK AO2
                 RAB01E15B32E52UPB13E14B52 SLP207 P0000 T00111017 FZRANO =
2017-12-17 19:56 METAR KFKL 180056Z AUTO 19006KT 10SM OVC070 01/M02 A3007 RMK AO2 RAB43E54 SLP205
                 P0000 T00061022 FZRANO =
2017-12-17 18:56 METAR KFKL 172356Z AUTO 19008KT 10SM OVC100 01/M02 A3008 RMK AO2 SLP205
                 T00111022 10011 21011 56009 FZRANO =
2017-12-17 17:56 METAR KFKL 172256Z AUTO 17008KT 10SM SCT075 OVC090 01/M02 A3008 RMK AO2 SLP207
                 T00061022 FZRANO =

Support USWX by starting your Amazon purchase here.